createdAt,value
2023-03-17T00:01:51.632Z,1.60
2023-03-17T00:04:20.002Z,1.60
2023-03-17T00:06:48.117Z,1.80
2023-03-17T00:09:18.283Z,1.70
2023-03-17T00:11:46.812Z,1.30
2023-03-17T00:14:14.392Z,1.60
2023-03-17T00:16:44.658Z,1.70
2023-03-17T00:19:21.806Z,1.50
2023-03-17T00:21:50.116Z,1.50
2023-03-17T00:24:26.413Z,1.60
2023-03-17T00:26:59.854Z,1.50
2023-03-17T00:29:27.150Z,1.30
2023-03-17T00:31:57.126Z,1.50
2023-03-17T00:34:24.841Z,1.00
2023-03-17T00:36:52.312Z,1.00
2023-03-17T00:39:19.890Z,1.40
2023-03-17T00:41:49.984Z,1.20
2023-03-17T00:44:17.588Z,1.50
2023-03-17T00:46:48.059Z,1.30
2023-03-17T00:49:21.374Z,1.30
2023-03-17T00:51:49.936Z,1.20
2023-03-17T00:54:19.567Z,1.20
2023-03-17T00:56:48.532Z,1.10
2023-03-17T00:59:28.235Z,1.10
2023-03-17T01:01:56.344Z,1.00
2023-03-17T01:04:24.183Z,1.30
2023-03-17T01:06:53.140Z,1.20
2023-03-17T01:09:24.257Z,1.00
2023-03-17T01:11:51.629Z,1.00
2023-03-17T01:14:19.176Z,1.10
2023-03-17T01:16:47.890Z,1.00
2023-03-17T01:19:16.950Z,0.70
2023-03-17T01:21:44.547Z,1.20
2023-03-17T01:24:12.972Z,0.50
2023-03-17T01:26:40.627Z,1.00
2023-03-17T01:29:08.346Z,1.00
2023-03-17T01:31:36.442Z,1.00
2023-03-17T01:34:06.416Z,0.90
2023-03-17T01:36:34.551Z,0.90
2023-03-17T01:39:02.187Z,0.90
2023-03-17T01:41:37.716Z,0.40
2023-03-17T01:44:07.425Z,0.90
2023-03-17T01:46:37.848Z,0.70
2023-03-17T01:49:27.858Z,0.70
2023-03-17T01:52:07.668Z,0.70
2023-03-17T01:54:35.003Z,0.20
2023-03-17T01:57:18.756Z,0.20
2023-03-17T01:59:52.388Z,0.70
2023-03-17T02:02:24.956Z,0.40
2023-03-17T02:04:53.083Z,0.60
2023-03-17T02:07:22.309Z,0.70
2023-03-17T02:09:52.634Z,0.40
2023-03-17T02:12:22.795Z,0.70
2023-03-17T02:14:51.711Z,0.60
2023-03-17T02:17:20.315Z,0.20
2023-03-17T02:19:47.862Z,0.40
2023-03-17T02:22:17.061Z,0.60
2023-03-17T02:24:51.862Z,0.40
2023-03-17T02:27:25.569Z,0.40
2023-03-17T02:29:53.932Z,0.40
2023-03-17T02:32:21.366Z,0.20
2023-03-17T02:34:49.644Z,0.40
2023-03-17T02:37:18.315Z,0.40
2023-03-17T02:39:48.023Z,0.40
2023-03-17T02:42:15.328Z,0.40
2023-03-17T02:44:42.653Z,0.40
2023-03-17T02:47:09.944Z,0.40
2023-03-17T02:49:39.359Z,0.20
2023-03-17T02:52:07.435Z,0.30
2023-03-17T02:54:35.003Z,0.30
2023-03-17T02:57:02.379Z,0.30
2023-03-17T02:59:29.915Z,0.30
2023-03-17T03:01:57.379Z,0.20
2023-03-17T03:04:24.715Z,0.30
2023-03-17T03:06:52.600Z,0.20
2023-03-17T03:09:20.469Z,0.30
2023-03-17T03:11:48.201Z,0.20
2023-03-17T03:14:15.496Z,0.20
2023-03-17T03:16:43.612Z,-0.10
2023-03-17T03:19:11.008Z,0.20
2023-03-17T03:21:38.538Z,0.10
2023-03-17T03:24:06.678Z,0.20
2023-03-17T03:26:33.971Z,0.00
2023-03-17T03:29:02.337Z,0.10
2023-03-17T03:31:29.739Z,0.10
2023-03-17T03:33:57.026Z,0.00
2023-03-17T03:36:25.477Z,0.20
2023-03-17T03:38:55.015Z,-0.20
2023-03-17T03:41:25.255Z,0.00
2023-03-17T03:43:53.138Z,0.00
2023-03-17T03:46:20.500Z,-0.10
2023-03-17T03:48:50.832Z,0.10
2023-03-17T03:51:18.206Z,0.10
2023-03-17T03:53:45.516Z,-0.10
2023-03-17T03:56:12.881Z,-0.10
2023-03-17T03:58:41.848Z,-0.10
2023-03-17T04:01:10.148Z,-0.10
2023-03-17T04:03:38.623Z,-0.60
2023-03-17T04:06:06.566Z,-0.50
2023-03-17T04:08:33.906Z,-0.30
2023-03-17T04:11:01.266Z,-0.20
2023-03-17T04:13:28.528Z,-0.60
2023-03-17T04:15:56.654Z,-0.50
2023-03-17T04:18:24.122Z,-0.30
2023-03-17T04:20:51.478Z,-0.30
2023-03-17T04:23:19.157Z,-0.50
2023-03-17T04:25:47.190Z,-0.40
2023-03-17T04:28:14.646Z,-0.10
2023-03-17T04:30:42.154Z,-0.40
2023-03-17T04:33:12.192Z,-0.50
2023-03-17T04:35:43.014Z,-0.80
2023-03-17T04:38:14.226Z,-0.40
2023-03-17T04:40:41.766Z,-0.30
2023-03-17T04:43:12.232Z,-0.30
2023-03-17T04:45:39.628Z,-0.60
2023-03-17T04:48:07.075Z,-0.60
2023-03-17T04:50:34.559Z,-0.20
2023-03-17T04:53:02.246Z,-0.40
2023-03-17T04:55:29.607Z,-0.90
2023-03-17T04:57:56.989Z,-0.60
2023-03-17T05:00:24.323Z,-0.30
2023-03-17T05:02:51.787Z,-0.30
2023-03-17T05:05:19.129Z,-0.60
2023-03-17T05:07:46.838Z,-0.40
2023-03-17T05:10:16.370Z,-0.40
2023-03-17T05:12:47.423Z,-0.50
2023-03-17T05:15:48.762Z,-0.30
2023-03-17T05:18:37.166Z,-0.40
2023-03-17T05:21:09.022Z,-0.40
2023-03-17T05:24:09.250Z,-0.40
2023-03-17T05:26:42.266Z,-0.50
2023-03-17T05:29:10.157Z,-0.50
2023-03-17T05:31:37.709Z,-0.40
2023-03-17T05:34:07.597Z,-0.80
2023-03-17T05:36:37.059Z,-0.40
2023-03-17T05:39:07.549Z,-0.30
2023-03-17T05:41:35.027Z,-0.20
2023-03-17T05:47:31.208Z,-0.30
2023-03-17T05:50:06.921Z,-0.20
2023-03-17T05:52:43.920Z,-0.50
2023-03-17T05:55:48.042Z,-0.20
2023-03-17T05:58:40.886Z,-0.10
2023-03-17T06:02:00.069Z,-0.10
2023-03-17T06:04:39.785Z,0.20
2023-03-17T06:13:38.845Z,0.40
2023-03-17T06:17:09.573Z,0.70
2023-03-17T06:19:51.665Z,0.60
2023-03-17T06:22:22.841Z,0.90
2023-03-17T06:25:12.223Z,0.90
2023-03-17T06:27:45.268Z,1.20
2023-03-17T06:30:13.853Z,1.20
2023-03-17T06:32:53.781Z,1.30
2023-03-17T06:35:31.359Z,1.40
2023-03-17T06:38:01.536Z,1.50
2023-03-17T06:40:47.412Z,1.80
2023-03-17T06:44:13.500Z,1.40
2023-03-17T06:51:14.025Z,1.90
2023-03-17T07:23:56.536Z,4.30
2023-03-17T07:29:41.874Z,4.60
2023-03-17T07:36:13.361Z,5.00
2023-03-17T08:26:52.399Z,6.90
2023-03-17T08:32:24.102Z,7.10
2023-03-17T08:35:37.512Z,7.10
2023-03-17T08:38:09.172Z,7.30
2023-03-17T08:41:13.506Z,7.20
2023-03-17T08:43:46.488Z,7.50
2023-03-17T08:49:57.168Z,7.50
2023-03-17T08:55:53.766Z,7.70
2023-03-17T08:58:32.100Z,7.70
2023-03-17T09:01:05.319Z,7.90
2023-03-17T09:09:40.737Z,8.20
2023-03-17T09:23:36.661Z,8.40
2023-03-17T09:26:06.763Z,8.60
2023-03-17T09:38:01.483Z,8.80
2023-03-17T09:41:20.561Z,8.80
2023-03-17T09:47:38.776Z,9.00
2023-03-17T09:56:57.032Z,9.00
2023-03-17T09:59:37.199Z,9.20
2023-03-17T10:05:35.269Z,9.60
2023-03-17T10:19:21.259Z,9.60
2023-03-17T10:38:22.800Z,10.30
2023-03-17T10:41:13.587Z,10.40
2023-03-17T11:20:44.209Z,10.50
2023-03-17T11:32:42.753Z,10.90
2023-03-17T12:06:56.129Z,11.40
2023-03-17T12:09:35.976Z,11.20
2023-03-17T12:12:18.209Z,11.20
2023-03-17T12:54:54.404Z,11.40
2023-03-17T12:57:32.710Z,11.70
2023-03-17T13:00:10.301Z,11.70
2023-03-17T13:10:14.619Z,11.80
2023-03-17T13:38:00.987Z,11.70
2023-03-17T13:47:27.382Z,11.70
2023-03-17T13:50:18.252Z,11.50
2023-03-17T14:09:34.482Z,11.40
2023-03-17T14:12:12.708Z,11.20
2023-03-17T14:18:15.742Z,11.30
2023-03-17T14:26:50.410Z,11.30
2023-03-17T14:29:22.447Z,11.30
2023-03-17T14:42:05.503Z,11.00
2023-03-17T14:48:05.867Z,10.70
2023-03-17T15:20:49.014Z,10.60
2023-03-17T15:27:16.544Z,10.60
2023-03-17T15:29:44.739Z,10.50
2023-03-17T15:46:58.847Z,10.20
2023-03-17T15:59:58.484Z,9.80
2023-03-17T17:47:42.583Z,7.20
2023-03-17T19:14:00.212Z,5.90
2023-03-17T19:16:29.707Z,5.70
2023-03-17T19:19:05.413Z,5.50
2023-03-17T19:21:44.209Z,5.70
2023-03-17T19:24:21.303Z,5.60
2023-03-17T19:26:53.961Z,5.70
2023-03-17T19:29:29.117Z,5.60
2023-03-17T19:32:18.283Z,5.50
2023-03-17T19:34:49.085Z,5.40
2023-03-17T19:37:31.634Z,5.40
2023-03-17T19:40:33.096Z,5.30
2023-03-17T19:43:53.516Z,5.40
2023-03-17T19:46:29.918Z,5.20
2023-03-17T19:49:13.165Z,5.30
2023-03-17T19:52:06.620Z,5.00
2023-03-17T19:54:39.021Z,5.10
2023-03-17T19:57:15.729Z,4.70
2023-03-17T19:59:58.288Z,5.00
2023-03-17T20:02:57.788Z,5.10
2023-03-17T20:05:43.802Z,5.00
